Time;durP1;ratioP1;P1;durP2;ratioP2;P2;SDS_P1;SDS_P2;PMS_P1;PMS_P2;Temp;Humidity;BMP_temperature;BMP_pressure;BME280_temperature;BME280_humidity;BME280_pressure;Samples;Min_cycle;Max_cycle;Signal;HPM_P1;HPM_P2
2022/01/15 00:02:08;;;;;;;42.08;23.45;;;26.50;99.90;;;;;;5073714;28;20029;-66
2022/01/15 00:04:35;;;;;;;103.05;68.85;;;26.50;99.90;;;;;;5073771;28;20036;-67
2022/01/15 00:07:02;;;;;;;148.10;88.68;;;26.50;99.90;;;;;;5074916;28;20085;-66
2022/01/15 00:09:28;;;;;;;60.88;33.63;;;26.50;99.90;;;;;;5074462;28;20028;-67
2022/01/15 00:11:55;;;;;;;76.70;42.45;;;26.50;99.90;;;;;;5082476;28;20028;-66
2022/01/15 00:14:31;;;;;;;55.03;25.67;;;26.60;99.90;;;;;;5093762;28;20060;-66
2022/01/15 00:17:06;;;;;;;56.65;26.45;;;26.60;99.90;;;;;;5093716;28;20028;-66
2022/01/15 00:19:41;;;;;;;55.50;25.40;;;26.60;99.90;;;;;;5093832;28;20039;-66
2022/01/15 00:22:16;;;;;;;48.33;24.38;;;26.60;99.90;;;;;;5092378;28;20034;-67
2022/01/15 00:24:44;;;;;;;53.05;24.77;;;26.60;99.90;;;;;;5093704;28;20056;-66
2022/01/15 00:27:12;;;;;;;52.58;25.00;;;26.70;99.90;;;;;;5092017;28;20028;-66
2022/01/15 00:29:38;;;;;;;67.80;35.50;;;26.70;99.90;;;;;;5093824;28;20020;-66
2022/01/15 00:32:07;;;;;;;172.18;107.88;;;26.70;99.90;;;;;;5087475;28;20086;-67
2022/01/15 00:34:35;;;;;;;103.85;57.45;;;26.80;99.90;;;;;;5073257;28;20024;-66
2022/01/15 00:37:02;;;;;;;55.42;32.55;;;26.80;99.90;;;;;;5074323;28;20345;-67
2022/01/15 00:39:28;;;;;;;62.15;29.83;;;26.80;99.90;;;;;;5073307;28;20029;-67
2022/01/15 00:41:55;;;;;;;90.72;50.88;;;26.80;99.90;;;;;;5073920;28;20033;-67
2022/01/15 00:47:07;;;;;;;65.00;32.55;;;26.90;99.90;;;;;;5093235;28;20031;-67
2022/01/15 00:49:33;;;;;;;70.43;36.13;;;27.00;99.90;;;;;;5093507;28;20020;-67
2022/01/15 00:52:00;;;;;;;106.70;63.92;;;27.00;99.90;;;;;;5094112;28;20031;-67
2022/01/15 00:54:27;;;;;;;73.03;33.65;;;27.10;99.90;;;;;;5091268;28;20044;-67
2022/01/15 00:56:53;;;;;;;71.47;34.50;;;27.20;99.90;;;;;;5093150;28;20497;-67
2022/01/15 00:59:20;;;;;;;55.20;28.17;;;27.20;99.90;;;;;;5078641;28;20032;-69
2022/01/15 01:01:47;;;;;;;57.53;27.52;;;27.30;99.90;;;;;;5072846;28;20025;-67
2022/01/15 01:04:14;;;;;;;54.83;29.92;;;27.30;99.90;;;;;;5073316;28;20434;-67
2022/01/15 01:06:40;;;;;;;105.95;60.88;;;27.40;99.90;;;;;;5073232;28;20029;-67
2022/01/15 01:09:07;;;;;;;103.20;62.63;;;27.50;99.90;;;;;;5074227;28;20025;-67
2022/01/15 01:24:47;;;;;;;71.25;41.70;;;27.90;99.90;;;;;;5091136;28;20036;-66
2022/01/15 01:27:25;;;;;;;111.28;61.80;;;28.00;99.90;;;;;;5093242;28;20541;-69
2022/01/15 01:32:41;;;;;;;58.80;29.65;;;28.20;99.90;;;;;;5092768;28;20027;-69
2022/01/15 01:35:14;;;;;;;52.72;26.42;;;28.30;99.90;;;;;;5093191;28;20363;-69
2022/01/15 01:37:43;;;;;;;43.70;21.67;;;28.40;99.90;;;;;;5093021;28;20024;-69
2022/01/15 01:40:26;;;;;;;36.80;21.15;;;28.40;99.90;;;;;;5091833;28;20378;-69
2022/01/15 01:43:00;;;;;;;;;;;28.30;99.90;;;;;;5093357;28;20081;-71
2022/01/15 01:45:28;;;;;;;54.55;26.88;;;28.40;99.90;;;;;;5091262;28;20002;-70
2022/01/15 01:47:54;;;;;;;43.85;23.52;;;28.40;99.90;;;;;;5093093;28;20393;-69
2022/01/15 01:50:24;;;;;;;47.70;22.05;;;28.40;99.90;;;;;;5093482;28;20436;-70
2022/01/15 01:52:54;;;;;;;49.17;21.30;;;28.50;99.90;;;;;;5096484;28;20035;-69
2022/01/15 01:55:23;;;;;;;45.72;19.25;;;28.40;99.90;;;;;;5093319;28;20016;-69
2022/01/15 01:57:52;;;;;;;48.45;19.77;;;28.50;99.90;;;;;;5076308;28;20488;-69
2022/01/15 02:00:23;;;;;;;49.42;22.58;;;28.60;99.90;;;;;;5078205;28;20535;-70
2022/01/15 02:02:51;;;;;;;49.38;20.80;;;28.70;99.90;;;;;;5084368;28;20056;-68
2022/01/15 02:05:19;;;;;;;35.30;14.30;;;28.80;99.90;;;;;;5076233;28;20025;-69
2022/01/15 02:07:46;;;;;;;34.03;15.00;;;28.90;99.90;;;;;;5076190;28;20466;-68
2022/01/15 02:10:16;;;;;;;40.17;15.30;;;28.90;99.90;;;;;;5075901;28;20485;-68
2022/01/15 02:12:44;;;;;;;27.02;13.25;;;28.90;99.90;;;;;;5094538;28;20063;-70
2022/01/15 02:15:15;;;;;;;27.40;13.55;;;28.90;99.90;;;;;;5080852;28;20027;-69
2022/01/15 02:17:42;;;;;;;38.10;13.18;;;28.90;99.90;;;;;;5077271;28;20024;-69
2022/01/15 02:25:49;;;;;;;42.88;18.02;;;29.20;99.90;;;;;;5075474;28;20515;-69
2022/01/15 02:28:17;;;;;;;39.55;17.63;;;29.30;99.90;;;;;;5093995;28;20032;-68
2022/01/15 02:30:44;;;;;;;30.08;10.15;;;29.40;99.90;;;;;;5095723;28;20044;-68
2022/01/15 02:33:11;;;;;;;37.40;11.98;;;29.50;99.90;;;;;;5076683;28;20024;-65
2022/01/15 02:35:38;;;;;;;30.50;12.45;;;29.50;99.90;;;;;;5075903;28;20024;-68
2022/01/15 02:38:11;;;;;;;61.38;34.03;;;29.50;99.90;;;;;;5075733;28;20081;-67
2022/01/15 02:40:39;;;;;;;62.40;28.77;;;29.40;99.90;;;;;;5075533;28;20029;-67
2022/01/15 02:43:15;;;;;;;31.80;12.95;;;29.30;99.90;;;;;;5076550;28;20032;-67
2022/01/15 02:45:45;;;;;;;74.72;43.10;;;29.40;99.90;;;;;;5076590;28;20059;-67
2022/01/15 02:48:16;;;;;;;100.85;62.83;;;29.40;99.90;;;;;;5088925;28;20028;-68
2022/01/15 02:50:45;;;;;;;91.70;64.67;;;29.60;99.90;;;;;;5095549;28;20027;-68
2022/01/15 02:53:16;;;;;;;26.50;10.70;;;29.60;99.90;;;;;;5095177;28;20059;-69
2022/01/15 02:55:51;;;;;;;27.83;9.65;;;29.70;99.90;;;;;;5095435;28;20374;-70
2022/01/15 02:58:20;;;;;;;30.00;8.90;;;29.70;99.90;;;;;;5093696;28;20440;-70
2022/01/15 03:00:47;;;;;;;27.73;10.68;;;29.80;99.90;;;;;;5094415;28;20436;-69
2022/01/15 03:03:14;;;;;;;31.50;10.30;;;29.80;99.90;;;;;;5080730;28;20025;-71
2022/01/15 03:05:41;;;;;;;33.78;11.60;;;29.80;99.90;;;;;;5073906;28;20107;-71
2022/01/15 03:08:08;;;;;;;20.10;10.05;;;29.70;99.90;;;;;;5071824;28;20181;-70
2022/01/15 03:10:35;;;;;;;22.05;9.10;;;29.70;99.90;;;;;;5072152;28;20104;-69
2022/01/15 03:13:08;;;;;;;42.13;20.92;;;29.70;99.90;;;;;;5074794;28;20024;-70
2022/01/15 03:15:35;;;;;;;26.85;10.68;;;29.80;99.90;;;;;;5070606;28;20021;-69
2022/01/15 03:18:02;;;;;;;32.60;16.08;;;29.90;99.90;;;;;;5074043;28;20089;-68
2022/01/15 03:20:29;;;;;;;34.35;14.13;;;30.00;99.90;;;;;;5073425;28;20459;-69
2022/01/15 03:22:56;;;;;;;33.53;12.30;;;30.00;98.80;;;;;;5071934;28;20081;-69
2022/01/15 03:25:22;;;;;;;36.47;19.67;;;30.10;98.40;;;;;;5073148;28;20027;-68
2022/01/15 03:27:49;;;;;;;25.40;13.32;;;30.20;96.40;;;;;;5074757;28;20020;-70
2022/01/15 03:30:16;;;;;;;21.08;8.52;;;30.30;96.50;;;;;;5071632;28;20028;-70
2022/01/15 03:32:43;;;;;;;17.30;10.55;;;30.30;95.50;;;;;;5073095;28;20510;-70
2022/01/15 03:35:14;;;;;;;23.15;9.65;;;30.20;95.30;;;;;;5074234;28;20104;-72
2022/01/15 03:37:41;;;;;;;25.17;9.13;;;30.30;94.90;;;;;;5072836;28;20177;-71
2022/01/15 03:40:12;;;;;;;21.70;7.43;;;30.30;94.30;;;;;;5071955;28;20031;-72
2022/01/15 03:42:39;;;;;;;23.30;7.70;;;30.30;94.40;;;;;;5076887;28;20033;-73
2022/01/15 03:45:06;;;;;;;20.85;7.70;;;30.30;93.60;;;;;;5076006;28;20040;-71
2022/01/15 03:47:33;;;;;;;23.85;8.63;;;30.40;93.80;;;;;;5074607;28;20032;-73
2022/01/15 03:50:00;;;;;;;23.63;7.72;;;30.40;93.60;;;;;;5077346;28;20046;-73
2022/01/15 03:52:27;;;;;;;22.92;7.93;;;30.50;93.60;;;;;;5073655;28;20494;-72
2022/01/15 03:54:53;;;;;;;18.17;7.78;;;30.60;92.40;;;;;;5072961;28;20226;-71
2022/01/15 03:57:20;;;;;;;21.77;8.68;;;30.50;92.90;;;;;;5073544;28;20025;-72
2022/01/15 03:59:47;;;;;;;23.30;7.97;;;30.60;93.30;;;;;;5075784;28;20107;-72
2022/01/15 04:02:14;;;;;;;22.35;9.55;;;30.60;93.70;;;;;;5073230;28;20032;-71
2022/01/15 04:04:41;;;;;;;26.90;9.48;;;30.60;93.80;;;;;;5074774;28;20031;-73
2022/01/15 04:07:07;;;;;;;17.75;8.35;;;30.70;93.90;;;;;;5056888;28;20020;-76
2022/01/15 04:09:34;;;;;;;19.45;8.82;;;30.60;93.50;;;;;;5073605;28;20070;-70
2022/01/15 04:12:01;;;;;;;25.48;10.80;;;30.60;93.50;;;;;;5073804;28;20021;-70
2022/01/15 04:14:27;;;;;;;22.02;9.65;;;30.70;93.50;;;;;;5074580;28;20039;-70
2022/01/15 04:16:54;;;;;;;23.90;10.52;;;30.70;93.50;;;;;;5072693;28;20025;-70
2022/01/15 04:19:21;;;;;;;33.67;13.00;;;30.70;93.50;;;;;;5072975;28;20036;-71
2022/01/15 04:21:48;;;;;;;31.08;15.23;;;30.60;93.50;;;;;;5064734;28;20432;-69
2022/01/15 04:24:14;;;;;;;45.95;23.38;;;30.60;92.90;;;;;;5074679;28;20120;-70
2022/01/15 04:26:41;;;;;;;34.17;15.63;;;30.70;93.70;;;;;;5077605;28;20475;-69
2022/01/15 04:29:08;;;;;;;34.13;17.13;;;30.70;92.90;;;;;;5074255;28;20471;-70
2022/01/15 04:34:22;;;;;;;27.02;11.63;;;30.60;92.90;;;;;;5073294;28;20020;-71
2022/01/15 04:36:51;;;;;;;21.35;8.52;;;30.80;91.60;;;;;;5073450;28;20048;-70
2022/01/15 04:39:18;;;;;;;18.88;9.20;;;30.70;91.50;;;;;;5074806;28;20111;-70
2022/01/15 04:41:45;;;;;;;22.00;9.30;;;30.80;91.70;;;;;;5074472;28;20024;-69
2022/01/15 04:44:12;;;;;;;24.98;8.80;;;30.80;91.50;;;;;;5067209;28;20029;-70
2022/01/15 04:46:40;;;;;;;22.80;9.45;;;30.80;90.40;;;;;;5074354;28;20032;-69
2022/01/15 04:49:07;;;;;;;22.75;9.82;;;30.80;91.60;;;;;;5069554;28;20046;-71
2022/01/15 04:51:34;;;;;;;18.20;9.23;;;30.70;91.10;;;;;;5072700;28;20082;-70
2022/01/15 04:54:01;;;;;;;25.02;10.20;;;30.70;91.20;;;;;;5072846;28;20064;-70
2022/01/15 04:56:28;;;;;;;23.35;9.30;;;30.80;91.10;;;;;;5072182;28;20029;-71
2022/01/15 04:58:56;;;;;;;31.70;11.48;;;30.90;90.90;;;;;;5072143;28;20029;-69
2022/01/15 05:01:23;;;;;;;33.45;10.32;;;30.90;90.50;;;;;;5071853;28;20036;-69
2022/01/15 05:03:50;;;;;;;29.73;11.73;;;30.90;90.50;;;;;;5071478;28;20394;-69
2022/01/15 05:06:16;;;;;;;21.65;10.43;;;30.90;90.50;;;;;;5071499;28;20021;-70
2022/01/15 05:08:45;;;;;;;24.92;11.07;;;31.00;90.30;;;;;;5070348;28;20056;-70
2022/01/15 05:11:27;;;;;;;21.23;9.48;;;31.00;90.30;;;;;;5070628;28;20027;-71
2022/01/15 05:13:53;;;;;;;;;;;31.10;90.20;;;;;;5072869;28;20487;-69
2022/01/15 05:16:20;;;;;;;22.80;10.20;;;31.10;89.60;;;;;;5072090;28;19912;-70
2022/01/15 05:18:47;;;;;;;26.25;10.38;;;31.20;89.90;;;;;;5070528;28;20282;-68
2022/01/15 05:21:14;;;;;;;33.30;9.77;;;31.00;89.40;;;;;;5073248;28;20036;-77
2022/01/15 05:23:40;;;;;;;26.05;11.25;;;31.00;90.20;;;;;;5072850;28;20508;-68
2022/01/15 05:26:09;;;;;;;23.67;11.30;;;31.00;89.90;;;;;;5074665;28;20424;-69
2022/01/15 05:28:36;;;;;;;30.45;12.27;;;31.00;88.50;;;;;;5063927;28;20111;-70
2022/01/15 05:31:02;;;;;;;27.83;12.40;;;31.10;90.20;;;;;;5058933;28;20025;-69
2022/01/15 05:33:29;;;;;;;20.35;9.32;;;31.10;86.40;;;;;;5068109;28;20029;-70
2022/01/15 05:35:56;;;;;;;26.25;8.93;;;31.00;83.60;;;;;;5063777;28;20036;-70
2022/01/15 05:38:22;;;;;;;32.47;18.45;;;31.00;83.70;;;;;;5075019;28;20453;-70
2022/01/15 05:40:49;;;;;;;19.88;8.63;;;31.00;84.70;;;;;;5063083;28;20037;-69
2022/01/15 05:43:16;;;;;;;23.48;9.10;;;31.00;83.60;;;;;;5060183;28;20087;-69
2022/01/15 05:45:42;;;;;;;29.83;12.07;;;31.00;82.60;;;;;;5067469;28;20115;-69
2022/01/15 05:48:09;;;;;;;23.20;9.40;;;31.20;83.50;;;;;;5066997;28;20352;-69
2022/01/15 05:50:36;;;;;;;26.63;10.07;;;31.40;82.50;;;;;;5072429;28;20017;-70
2022/01/15 05:53:03;;;;;;;45.78;26.13;;;31.50;82.70;;;;;;5073364;28;20040;-67
2022/01/15 05:55:29;;;;;;;31.40;16.05;;;31.50;81.70;;;;;;5072112;28;20028;-66
2022/01/15 05:57:56;;;;;;;30.83;13.23;;;31.40;80.60;;;;;;5070371;28;20063;-67
2022/01/15 06:00:23;;;;;;;23.33;9.02;;;31.40;82.70;;;;;;5072483;28;20043;-67
2022/01/15 06:02:49;;;;;;;22.27;10.27;;;31.40;81.50;;;;;;5074582;28;20025;-71
2022/01/15 06:05:16;;;;;;;36.55;17.17;;;31.40;82.20;;;;;;5074027;28;20028;-72
2022/01/15 06:07:43;;;;;;;64.10;29.63;;;31.40;81.70;;;;;;5074614;28;20023;-70
2022/01/15 06:10:10;;;;;;;138.70;71.88;;;31.50;81.40;;;;;;5072618;28;20059;-71
2022/01/15 06:12:42;;;;;;;24.42;11.25;;;31.50;80.20;;;;;;5075064;28;20104;-70
2022/01/15 06:15:11;;;;;;;27.65;9.38;;;31.60;80.60;;;;;;5062088;28;20074;-71
2022/01/15 06:17:38;;;;;;;24.35;11.45;;;31.60;80.20;;;;;;5056189;28;20116;-71
2022/01/15 06:20:06;;;;;;;32.95;14.38;;;31.60;80.50;;;;;;5060497;28;20028;-70
2022/01/15 06:22:33;;;;;;;28.13;10.88;;;31.50;80.00;;;;;;5061378;28;20029;-71
2022/01/15 06:25:02;;;;;;;20.17;9.18;;;31.60;79.00;;;;;;5058826;28;20021;-72
2022/01/15 06:27:31;;;;;;;22.98;11.25;;;31.50;78.10;;;;;;5042530;23;20055;-71
2022/01/15 06:29:59;;;;;;;26.45;12.55;;;31.60;79.10;;;;;;5019014;28;20487;-71
2022/01/15 06:32:27;;;;;;;67.78;37.80;;;31.70;80.10;;;;;;5017474;28;20219;-72
2022/01/15 06:34:54;;;;;;;31.90;20.48;;;31.80;80.00;;;;;;5018203;28;20025;-70
2022/01/15 06:37:21;;;;;;;26.50;13.20;;;31.80;79.80;;;;;;5010689;28;20014;-69
2022/01/15 06:39:48;;;;;;;71.82;42.58;;;31.80;78.70;;;;;;5016162;28;20057;-69
2022/01/15 06:42:15;;;;;;;20.80;9.38;;;31.90;79.00;;;;;;5015400;28;20494;-70
2022/01/15 06:44:42;;;;;;;42.15;22.65;;;31.90;79.10;;;;;;5014476;28;20030;-70
2022/01/15 06:47:09;;;;;;;46.55;27.83;;;31.90;79.60;;;;;;5016436;28;20018;-73
2022/01/15 06:49:35;;;;;;;31.55;16.63;;;31.90;79.70;;;;;;5015441;28;20026;-68
2022/01/15 06:52:02;;;;;;;22.75;12.48;;;31.90;79.40;;;;;;5015625;28;20387;-68
2022/01/15 06:54:29;;;;;;;25.45;11.10;;;32.00;81.00;;;;;;5014510;28;20400;-69
2022/01/15 06:56:56;;;;;;;22.60;11.13;;;31.90;80.60;;;;;;5014420;28;20387;-67
2022/01/15 06:59:22;;;;;;;27.25;12.20;;;31.90;77.80;;;;;;5014800;28;20113;-70
2022/01/15 07:01:50;;;;;;;25.23;10.38;;;31.90;79.50;;;;;;5014310;28;20032;-67
2022/01/15 07:04:16;;;;;;;38.42;19.15;;;31.90;80.40;;;;;;5018122;28;20557;-67
2022/01/15 07:06:43;;;;;;;24.58;13.13;;;32.00;80.50;;;;;;5015580;28;20033;-67
2022/01/15 07:09:10;;;;;;;45.92;27.05;;;32.00;80.50;;;;;;5017280;28;20034;-67
2022/01/15 07:11:36;;;;;;;23.75;12.02;;;32.00;80.70;;;;;;5018111;28;20101;-68
2022/01/15 07:14:03;;;;;;;23.67;10.70;;;32.00;79.20;;;;;;5014823;28;20022;-68
2022/01/15 07:16:30;;;;;;;21.83;12.25;;;31.90;79.40;;;;;;5016767;28;20113;-69
2022/01/15 07:18:56;;;;;;;23.25;10.77;;;32.00;79.70;;;;;;5012417;28;20042;-68
2022/01/15 07:21:23;;;;;;;22.67;10.65;;;32.00;79.40;;;;;;5015662;28;20038;-68
2022/01/15 07:23:50;;;;;;;24.38;10.10;;;32.00;80.60;;;;;;5015687;28;20432;-68
2022/01/15 07:26:16;;;;;;;19.17;9.95;;;32.00;79.60;;;;;;5021712;28;20049;-68
2022/01/15 07:28:43;;;;;;;27.42;10.52;;;31.90;79.90;;;;;;5034278;28;20025;-68
2022/01/15 07:31:10;;;;;;;25.10;9.95;;;31.90;79.40;;;;;;5038408;28;20026;-67
2022/01/15 07:33:36;;;;;;;25.15;10.15;;;31.90;78.40;;;;;;5033500;28;20033;-68
2022/01/15 07:36:04;;;;;;;19.63;10.55;;;31.90;80.10;;;;;;5033761;28;20466;-67
2022/01/15 07:38:31;;;;;;;23.20;12.10;;;32.00;79.20;;;;;;5033436;28;20033;-67
2022/01/15 07:40:58;;;;;;;22.48;12.07;;;32.00;79.90;;;;;;5034810;28;20022;-67
2022/01/15 07:43:27;;;;;;;25.35;12.38;;;32.00;79.80;;;;;;5033253;28;20080;-68
2022/01/15 07:45:54;;;;;;;25.58;12.57;;;32.00;79.20;;;;;;5034218;28;20030;-69
2022/01/15 07:48:21;;;;;;;170.02;118.85;;;32.00;79.60;;;;;;5032750;28;20096;-69
2022/01/15 07:50:48;;;;;;;73.80;48.15;;;31.80;78.10;;;;;;5035628;28;20075;-69
2022/01/15 07:53:15;;;;;;;41.13;25.60;;;31.80;79.50;;;;;;5033207;28;20022;-70
2022/01/15 07:55:42;;;;;;;36.15;17.90;;;31.80;79.40;;;;;;5034502;28;20121;-69
2022/01/15 07:58:10;;;;;;;40.15;14.90;;;31.90;80.30;;;;;;5031929;28;20029;-69
2022/01/15 08:00:37;;;;;;;25.30;12.80;;;31.90;80.20;;;;;;5034684;28;20104;-69
2022/01/15 08:03:04;;;;;;;23.58;11.85;;;31.90;79.80;;;;;;5033035;28;20037;-70
2022/01/15 08:05:30;;;;;;;23.77;13.40;;;31.90;78.70;;;;;;5035452;28;20500;-70
2022/01/15 08:07:57;;;;;;;30.10;16.98;;;31.90;78.60;;;;;;5031436;28;20028;-69
2022/01/15 08:10:24;;;;;;;27.98;11.20;;;31.90;79.50;;;;;;5040337;28;20021;-68
2022/01/15 08:12:51;;;;;;;35.72;19.38;;;31.80;78.90;;;;;;5033701;28;20033;-69
2022/01/15 08:15:21;;;;;;;36.42;15.70;;;31.80;78.50;;;;;;5030587;28;20040;-69
2022/01/15 08:17:48;;;;;;;44.90;16.27;;;31.80;79.40;;;;;;5033035;28;20027;-69
2022/01/15 08:20:15;;;;;;;30.85;12.65;;;31.80;80.50;;;;;;5033108;28;20022;-68
2022/01/15 08:22:44;;;;;;;320.50;236.80;;;31.80;80.40;;;;;;5032995;28;20025;-68
2022/01/15 08:25:16;;;;;;;42.33;26.95;;;31.80;80.40;;;;;;5032255;28;20052;-68
2022/01/15 08:27:42;;;;;;;87.93;52.37;;;31.80;80.80;;;;;;5032461;28;20458;-68
2022/01/15 08:30:10;;;;;;;39.28;14.80;;;31.80;81.50;;;;;;5030925;28;20255;-67
2022/01/15 08:32:37;;;;;;;21.10;11.90;;;31.90;82.30;;;;;;5032937;28;20024;-67
2022/01/15 08:35:06;;;;;;;39.25;14.13;;;31.80;81.80;;;;;;5030304;28;20029;-68
2022/01/15 08:37:34;;;;;;;30.48;13.98;;;31.80;81.20;;;;;;5032618;28;20087;-68
2022/01/15 08:40:01;;;;;;;30.42;12.50;;;31.70;80.30;;;;;;5032551;28;20049;-67
2022/01/15 08:42:28;;;;;;;30.20;13.93;;;31.70;81.50;;;;;;5038510;28;20030;-67
2022/01/15 08:44:54;;;;;;;41.88;16.83;;;31.70;80.70;;;;;;5049587;28;20060;-68
2022/01/15 08:47:21;;;;;;;29.90;17.30;;;31.70;81.40;;;;;;5043710;28;20025;-67
2022/01/15 08:49:48;;;;;;;20.98;11.75;;;31.60;80.90;;;;;;5032935;28;20448;-67
2022/01/15 08:52:15;;;;;;;26.00;11.48;;;31.60;80.70;;;;;;5032682;28;20025;-67
2022/01/15 08:54:41;;;;;;;30.02;13.07;;;31.60;81.10;;;;;;5032308;28;20093;-64
2022/01/15 08:57:09;;;;;;;34.47;15.73;;;31.60;81.50;;;;;;5032920;28;20096;-68
2022/01/15 08:59:35;;;;;;;26.23;12.60;;;31.50;81.90;;;;;;5033449;28;20036;-67
2022/01/15 09:02:03;;;;;;;22.33;11.30;;;31.50;82.20;;;;;;5036183;28;20026;-67
2022/01/15 09:04:29;;;;;;;26.05;11.82;;;31.50;82.10;;;;;;5036643;28;20116;-67
2022/01/15 09:06:56;;;;;;;31.95;15.70;;;31.50;82.70;;;;;;5036563;28;20104;-67
2022/01/15 09:09:23;;;;;;;29.48;13.98;;;31.50;82.90;;;;;;5036240;28;20025;-67
2022/01/15 09:11:50;;;;;;;24.08;11.57;;;31.40;84.00;;;;;;5036512;28;20025;-68
2022/01/15 09:14:17;;;;;;;29.13;13.48;;;31.40;84.40;;;;;;5036291;28;20037;-66
2022/01/15 09:16:44;;;;;;;29.83;13.55;;;31.40;85.70;;;;;;5034561;28;20368;-67
2022/01/15 09:19:11;;;;;;;35.70;17.50;;;31.30;84.00;;;;;;5036413;28;20040;-68
2022/01/15 09:21:38;;;;;;;35.15;13.88;;;31.30;83.50;;;;;;5036318;28;20164;-68
2022/01/15 09:24:05;;;;;;;31.00;13.82;;;31.20;84.40;;;;;;5033704;28;20033;-67
2022/01/15 09:31:50;;;;;;;27.00;12.85;;;31.30;85.10;;;;;;5035665;28;20036;-67
2022/01/15 09:34:17;;;;;;;27.38;12.82;;;31.30;84.70;;;;;;5036056;28;20029;-67
2022/01/15 09:36:43;;;;;;;29.25;12.40;;;31.30;84.80;;;;;;5033395;28;20426;-68
2022/01/15 09:39:10;;;;;;;28.02;13.10;;;31.30;84.80;;;;;;5035956;28;20502;-68
2022/01/15 09:41:43;;;;;;;34.17;13.52;;;31.30;84.90;;;;;;5036214;28;20086;-67
2022/01/15 09:44:10;;;;;;;26.95;13.75;;;31.30;85.00;;;;;;5034232;28;20063;-69
2022/01/15 09:46:37;;;;;;;25.38;12.88;;;31.20;84.10;;;;;;5037249;28;20029;-68
2022/01/15 09:49:05;;;;;;;27.85;11.80;;;31.20;84.10;;;;;;5036413;28;20108;-67
2022/01/15 09:51:32;;;;;;;23.42;11.77;;;31.20;84.50;;;;;;5036609;28;20025;-68
2022/01/15 09:54:00;;;;;;;25.10;10.52;;;31.20;83.40;;;;;;5036565;28;20032;-68
2022/01/15 09:56:26;;;;;;;22.30;11.85;;;31.20;84.00;;;;;;5036415;28;20472;-68
2022/01/15 09:58:54;;;;;;;28.25;14.15;;;31.20;84.10;;;;;;5036411;28;20276;-68
2022/01/15 10:01:21;;;;;;;30.45;14.40;;;31.20;84.80;;;;;;5038292;28;20025;-68
2022/01/15 10:03:48;;;;;;;30.95;16.48;;;31.20;85.50;;;;;;5046606;28;20112;-68
2022/01/15 10:06:14;;;;;;;41.40;20.23;;;31.10;85.70;;;;;;5048251;28;20051;-69
2022/01/15 10:08:57;;;;;;;46.28;29.05;;;31.10;85.40;;;;;;5056154;28;20032;-68
2022/01/15 10:11:41;;;;;;;38.13;21.67;;;31.10;86.10;;;;;;5055387;28;20032;-68
2022/01/15 10:14:32;;;;;;;42.70;22.20;;;31.20;86.00;;;;;;5056018;28;20032;-68
2022/01/15 10:17:02;;;;;;;40.45;22.00;;;31.10;86.40;;;;;;5056128;28;20356;-68
2022/01/15 10:19:35;;;;;;;38.33;21.90;;;31.10;86.10;;;;;;5049901;28;20033;-67
2022/01/15 10:22:11;;;;;;;40.58;20.88;;;31.00;86.50;;;;;;5036163;28;20029;-69
2022/01/15 10:24:40;;;;;;;134.23;77.90;;;31.00;87.20;;;;;;5035784;28;20030;-68
2022/01/15 10:27:19;;;;;;;76.07;43.42;;;31.00;87.20;;;;;;5035294;28;20454;-68
2022/01/15 10:29:53;;;;;;;82.18;45.30;;;31.00;86.80;;;;;;5034211;28;20075;-68
2022/01/15 10:32:20;;;;;;;66.85;32.88;;;31.00;87.50;;;;;;5035370;28;20030;-68
2022/01/15 10:34:47;;;;;;;176.10;115.40;;;31.00;87.40;;;;;;5035831;28;20104;-69
2022/01/15 10:37:16;;;;;;;42.05;19.45;;;31.00;87.40;;;;;;5035694;28;20029;-69
2022/01/15 10:40:06;;;;;;;627.78;507.02;;;30.90;85.90;;;;;;5035894;28;20025;-69
2022/01/15 10:42:34;;;;;;;227.40;160.93;;;31.00;86.90;;;;;;5035363;28;20030;-68
2022/01/15 10:45:09;;;;;;;822.33;587.22;;;31.00;87.10;;;;;;5036060;28;20032;-70
2022/01/15 10:47:48;;;;;;;1173.57;741.08;;;31.00;86.90;;;;;;5035445;28;20024;-69
2022/01/15 10:50:27;;;;;;;514.42;388.38;;;31.00;87.20;;;;;;5035755;28;20105;-69
2022/01/15 10:52:56;;;;;;;419.25;286.65;;;31.00;87.40;;;;;;5035362;28;20025;-68
2022/01/15 10:55:29;;;;;;;255.38;166.30;;;30.90;87.00;;;;;;5035331;28;20057;-68
2022/01/15 10:57:56;;;;;;;190.60;107.85;;;30.90;87.90;;;;;;5035245;28;20112;-69
2022/01/15 11:00:38;;;;;;;131.98;74.30;;;30.70;87.10;;;;;;5035246;28;20064;-69
2022/01/15 11:03:08;;;;;;;96.13;55.00;;;30.70;87.30;;;;;;5035332;28;20383;-68
2022/01/15 11:05:38;;;;;;;698.78;431.23;;;30.60;88.70;;;;;;5035115;28;20104;-69
2022/01/15 11:08:07;;;;;;;515.40;320.95;;;30.60;88.70;;;;;;5035376;28;20030;-69
2022/01/15 11:10:39;;;;;;;971.20;627.70;;;30.50;88.80;;;;;;5035087;28;20029;-69
2022/01/15 11:13:10;;;;;;;849.00;560.03;;;30.40;89.30;;;;;;5034982;28;20030;-68
2022/01/15 11:15:38;;;;;;;410.73;253.30;;;30.40;89.90;;;;;;5035270;28;20101;-68
2022/01/15 11:18:06;;;;;;;832.45;538.42;;;30.30;89.30;;;;;;5034931;28;20029;-68
2022/01/15 11:20:35;;;;;;;214.07;115.43;;;30.30;90.10;;;;;;5035075;28;20104;-69
2022/01/15 11:23:03;;;;;;;516.40;312.25;;;30.20;90.10;;;;;;5034135;28;20064;-68
2022/01/15 11:25:30;;;;;;;302.65;147.95;;;30.20;90.60;;;;;;5040589;28;20038;-68
2022/01/15 11:27:57;;;;;;;226.88;118.05;;;30.20;90.60;;;;;;5043954;28;20495;-68
2022/01/15 11:30:26;;;;;;;237.93;133.55;;;30.20;90.50;;;;;;5054236;28;20082;-68
2022/01/15 11:32:54;;;;;;;113.40;58.08;;;30.10;90.70;;;;;;5047366;28;20030;-68
2022/01/15 11:35:20;;;;;;;120.65;65.82;;;30.10;91.00;;;;;;5049881;28;20029;-67
2022/01/15 11:37:52;;;;;;;126.93;68.13;;;30.00;90.80;;;;;;5054386;28;20471;-68
2022/01/15 11:40:36;;;;;;;154.98;78.22;;;30.00;91.20;;;;;;5054407;28;20025;-68
2022/01/15 11:43:26;;;;;;;101.38;52.92;;;30.00;91.30;;;;;;5054393;28;20383;-67
2022/01/15 11:45:54;;;;;;;142.15;85.85;;;30.00;91.80;;;;;;5054224;28;20379;-68
2022/01/15 11:48:24;;;;;;;236.30;131.35;;;30.00;92.00;;;;;;5054199;28;20509;-68
2022/01/15 11:51:22;;;;;;;187.38;114.18;;;30.00;91.90;;;;;;5054161;28;20057;-66
2022/01/15 11:53:57;;;;;;;154.57;83.25;;;29.90;92.60;;;;;;5053997;28;20171;-68
2022/01/15 11:56:36;;;;;;;209.88;109.32;;;29.80;92.80;;;;;;5047919;28;20052;-67
2022/01/15 11:59:34;;;;;;;213.45;125.03;;;29.60;92.70;;;;;;5034554;28;20517;-67
2022/01/15 12:02:05;;;;;;;362.33;210.55;;;29.50;93.10;;;;;;5040726;28;20029;-68
2022/01/15 12:04:37;;;;;;;209.35;112.03;;;29.40;94.00;;;;;;5033766;28;20033;-69
2022/01/15 12:07:22;;;;;;;383.20;199.50;;;29.30;94.20;;;;;;5033361;28;20472;-68
2022/01/15 12:09:51;;;;;;;500.30;276.88;;;29.20;94.60;;;;;;5031464;28;20060;-68
2022/01/15 12:12:42;;;;;;;100.10;47.50;;;29.20;94.90;;;;;;5034041;28;20028;-67
2022/01/15 12:15:11;;;;;;;213.95;123.95;;;29.20;95.20;;;;;;5033716;28;20518;-68
2022/01/15 12:17:47;;;;;;;190.82;111.28;;;29.20;95.20;;;;;;5033708;28;20120;-70
2022/01/15 12:20:36;;;;;;;248.10;136.80;;;29.20;95.30;;;;;;5033969;28;20041;-69
2022/01/15 12:23:23;;;;;;;171.13;99.25;;;29.10;95.10;;;;;;5033564;28;20055;-68
2022/01/15 12:25:55;;;;;;;118.68;72.25;;;29.00;95.60;;;;;;5043613;28;20025;-68
2022/01/15 12:28:25;;;;;;;126.78;70.47;;;29.00;96.00;;;;;;5030474;28;20048;-68
2022/01/15 12:30:56;;;;;;;84.45;44.15;;;29.00;96.30;;;;;;5033336;28;20028;-66
2022/01/15 12:33:23;;;;;;;60.17;33.80;;;29.00;96.00;;;;;;5033233;28;20026;-66
2022/01/15 12:35:52;;;;;;;45.17;25.98;;;29.00;96.70;;;;;;5036760;28;20037;-66
2022/01/15 12:38:25;;;;;;;61.40;31.27;;;28.90;96.40;;;;;;5047632;28;20037;-66
2022/01/15 12:40:56;;;;;;;65.57;36.22;;;28.90;96.80;;;;;;5033472;28;20060;-67
2022/01/15 12:43:43;;;;;;;58.50;31.00;;;28.90;96.00;;;;;;5033226;28;20036;-67
2022/01/15 12:46:15;;;;;;;59.60;28.65;;;28.80;96.50;;;;;;5033259;28;20068;-68
2022/01/15 12:48:44;;;;;;;57.92;28.88;;;28.80;96.40;;;;;;5033383;28;20025;-68
2022/01/15 12:51:14;;;;;;;47.13;23.70;;;28.80;96.30;;;;;;5033480;28;20029;-68
2022/01/15 12:53:46;;;;;;;49.67;22.63;;;28.80;96.20;;;;;;5033321;28;20056;-68
2022/01/15 12:56:18;;;;;;;38.38;19.85;;;28.70;96.60;;;;;;5032871;28;20397;-67
2022/01/15 12:58:46;;;;;;;43.25;19.17;;;28.70;97.10;;;;;;5037612;28;20482;-69
2022/01/15 13:01:19;;;;;;;48.25;22.00;;;28.70;97.30;;;;;;5044338;28;20061;-66
2022/01/15 13:03:46;;;;;;;36.05;18.58;;;28.70;96.90;;;;;;5052101;28;20113;-66
2022/01/15 13:06:12;;;;;;;33.08;18.30;;;28.60;97.30;;;;;;5042094;28;20130;-67
2022/01/15 13:08:43;;;;;;;39.28;18.83;;;28.60;97.80;;;;;;5052818;28;20493;-67